Station Historical Data
Daily Summary for May 6, 2012 Units:  Both    English   Metric
« Previous Day
Next Day »
Daily Weekly Monthly Yearly Custom
  High: Low: Average:
Temperature: 85.6 °F /  29.8 °C 65.4 °F /  18.6 °C 72.8 °F /  22.7 °C
Dew Point: 70.4 °F /  21.3 °C 62.2 °F /  16.8 °C 65.8 °F /  18.8 °C
Humidity: 93% 49% 80%
Wind Speed: 14.0mph /  22.5km/h - 2.4mph /  3.9km/h
Wind Gust: 16.0mph /  25.7km/h - -
Wind- - South
Pressure: 29.95 in /  1014.1 hPa 29.84 in /  1010.4 hPa -
Precipitation: 0.01 in /  0.25 mm    
Historical Graphs
 
 
Tabular Data for May 6, 2012
Time Temperature Dew Point Pressure Wind Wind Speed Wind Gust Humidity Rainfall Rate (Hourly) Conditions
00:00 71.6 °F /  22 °C 68.8 °F /  20.4 °C 29.90in /  1012.4hPa Calm     91% 0.00in /  0mm
00:01 71.5 °F /  21.9 °C 68.7 °F /  20.4 °C 29.90in /  1012.4hPa Calm     91% 0.00in /  0mm
00:06 71.3 °F /  21.8 °C 68.9 °F /  20.5 °C 29.90in /  1012.4hPa Calm     92% 0.00in /  0mm
00:11 71.2 °F /  21.8 °C 68.8 °F /  20.4 °C 29.90in /  1012.4hPa Calm     92% 0.00in /  0mm
00:16 71.2 °F /  21.8 °C 68.8 °F /  20.4 °C 29.90in /  1012.4hPa Calm     92% 0.00in /  0mm
00:21 71.2 °F /  21.8 °C 68.8 °F /  20.4 °C 29.90in /  1012.4hPa Calm     92% 0.00in /  0mm
00:26 71.2 °F /  21.8 °C 68.8 °F /  20.4 °C 29.90in /  1012.4hPa Calm     92% 0.00in /  0mm
00:31 71.1 °F /  21.7 °C 68.7 °F /  20.4 °C 29.90in /  1012.4hPa Calm     92% 0.00in /  0mm
00:36 71.0 °F /  21.7 °C 68.6 °F /  20.3 °C 29.90in /  1012.4hPa Calm     92% 0.00in /  0mm
00:41 70.8 °F /  21.6 °C 68.4 °F /  20.2 °C 29.90in /  1012.4hPa Calm     92% 0.00in /  0mm
00:46 70.7 °F /  21.5 °C 68.3 °F /  20.2 °C 29.90in /  1012.4hPa Calm     92% 0.00in /  0mm
00:51 70.9 °F /  21.6 °C 68.5 °F /  20.3 °C 29.90in /  1012.4hPa Calm     92% 0.00in /  0mm
00:56 70.8 °F /  21.6 °C 68.4 °F /  20.2 °C 29.90in /  1012.4hPa Calm     92% 0.00in /  0mm
01:01 70.8 °F /  21.6 °C 68.4 °F /  20.2 °C 29.90in /  1012.4hPa Calm     92% 0.00in /  0mm
01:06 70.9 °F /  21.6 °C 68.5 °F /  20.3 °C 29.90in /  1012.4hPa Calm     92% 0.00in /  0mm
01:11 71.0 °F /  21.7 °C 68.6 °F /  20.3 °C 29.90in /  1012.4hPa Calm     92% 0.00in /  0mm
01:16 71.0 °F /  21.7 °C 68.6 °F /  20.3 °C 29.90in /  1012.4hPa Calm     92% 0.00in /  0mm
01:21 71.0 °F /  21.7 °C 68.6 °F /  20.3 °C 29.90in /  1012.4hPa NNE 1.0mph /  1.6km/h 1.0mph /  1.6km/h 92% 0.00in /  0mm
01:26 71.2 °F /  21.8 °C 68.8 °F /  20.4 °C 29.89in /  1012.1hPa Calm     92% 0.00in /  0mm
01:31 71.4 °F /  21.9 °C 69.0 °F /  20.6 °C 29.89in /  1012.1hPa Calm     92% 0.00in /  0mm
01:36 71.6 °F /  22 °C 69.2 °F /  20.7 °C 29.89in /  1012.1hPa Calm     92% 0.00in /  0mm
01:41 71.9 °F /  22.2 °C 69.4 °F /  20.8 °C 29.89in /  1012.1hPa Calm   1.0mph /  1.6km/h 92% 0.00in /  0mm
01:47 72.0 °F /  22.2 °C 69.2 °F /  20.7 °C 29.89in /  1012.1hPa Calm     91% 0.00in /  0mm
01:52 72.0 °F /  22.2 °C 69.2 °F /  20.7 °C 29.89in /  1012.1hPa Calm     91% 0.00in /  0mm
01:57 71.8 °F /  22.1 °C 69.0 °F /  20.6 °C 29.89in /  1012.1hPa Calm     91% 0.00in /  0mm
02:02 71.5 °F /  21.9 °C 68.7 °F /  20.4 °C 29.89in /  1012.1hPa Calm     91% 0.00in /  0mm
02:07 71.2 °F /  21.8 °C 68.4 °F /  20.2 °C 29.89in /  1012.1hPa Calm     91% 0.00in /  0mm
02:12 71.0 °F /  21.7 °C 68.6 °F /  20.3 °C 29.89in /  1012.1hPa Calm     92% 0.00in /  0mm
02:17 70.8 °F /  21.6 °C 68.4 °F /  20.2 °C 29.89in /  1012.1hPa Calm     92% 0.00in /  0mm
02:22 70.6 °F /  21.4 °C 68.2 °F /  20.1 °C 29.89in /  1012.1hPa Calm     92% 0.00in /  0mm
02:27 70.6 °F /  21.4 °C 68.2 °F /  20.1 °C 29.89in /  1012.1hPa Calm     92% 0.00in /  0mm
02:32 70.8 °F /  21.6 °C 68.4 °F /  20.2 °C 29.89in /  1012.1hPa Calm     92% 0.00in /  0mm
02:37 70.7 °F /  21.5 °C 68.3 °F /  20.2 °C 29.89in /  1012.1hPa Calm     92% 0.00in /  0mm
02:42 70.7 °F /  21.5 °C 68.3 °F /  20.2 °C 29.89in /  1012.1hPa Calm     92% 0.00in /  0mm
02:47 70.7 °F /  21.5 °C 68.3 °F /  20.2 °C 29.89in /  1012.1hPa Calm     92% 0.00in /  0mm
02:52 70.7 °F /  21.5 °C 68.3 °F /  20.2 °C 29.89in /  1012.1hPa Calm     92% 0.00in /  0mm
02:57 70.6 °F /  21.4 °C 68.2 °F /  20.1 °C 29.89in /  1012.1hPa Calm     92% 0.00in /  0mm
03:02 70.5 °F /  21.4 °C 68.1 °F /  20.1 °C 29.89in /  1012.1hPa Calm     92% 0.00in /  0mm
03:07 70.3 °F /  21.3 °C 67.9 °F /  19.9 °C 29.88in /  1011.7hPa Calm     92% 0.00in /  0mm
03:12 70.1 °F /  21.2 °C 67.7 °F /  19.8 °C 29.88in /  1011.7hPa Calm     92% 0.00in /  0mm
03:17 70.2 °F /  21.2 °C 67.8 °F /  19.9 °C 29.88in /  1011.7hPa Calm     92% 0.00in /  0mm
03:22 70.0 °F /  21.1 °C 67.6 °F /  19.8 °C 29.88in /  1011.7hPa Calm     92% 0.00in /  0mm
03:27 70.0 °F /  21.1 °C 67.9 °F /  19.9 °C 29.88in /  1011.7hPa Calm     93% 0.00in /  0mm
03:32 69.6 °F /  20.9 °C 67.2 °F /  19.6 °C 29.88in /  1011.7hPa Calm     92% 0.00in /  0mm
03:37 69.4 °F /  20.8 °C 67.3 °F /  19.6 °C 29.88in /  1011.7hPa Calm     93% 0.00in /  0mm
03:42 69.5 °F /  20.8 °C 67.4 °F /  19.7 °C 29.88in /  1011.7hPa Calm     93% 0.00in /  0mm
03:47 69.6 °F /  20.9 °C 67.5 °F /  19.7 °C 29.88in /  1011.7hPa Calm     93% 0.00in /  0mm
03:52 69.5 °F /  20.8 °C 67.4 °F /  19.7 °C 29.88in /  1011.7hPa Calm     93% 0.00in /  0mm
03:57 69.4 °F /  20.8 °C 67.3 °F /  19.6 °C 29.88in /  1011.7hPa Calm     93% 0.00in /  0mm
04:02 69.4 °F /  20.8 °C 67.3 °F /  19.6 °C 29.88in /  1011.7hPa Calm     93% 0.00in /  0mm
04:07 69.2 °F /  20.7 °C 67.1 °F /  19.5 °C 29.88in /  1011.7hPa Calm     93% 0.00in /  0mm
04:12 69.1 °F /  20.6 °C 67.0 °F /  19.4 °C 29.88in /  1011.7hPa Calm     93% 0.00in /  0mm
04:17 69.0 °F /  20.6 °C 66.9 °F /  19.4 °C 29.89in /  1012.1hPa Calm     93% 0.00in /  0mm
04:22 69.0 °F /  20.6 °C 66.9 °F /  19.4 °C 29.89in /  1012.1hPa Calm     93% 0.00in /  0mm
04:27 69.0 °F /  20.6 °C 66.9 °F /  19.4 °C 29.89in /  1012.1hPa Calm     93% 0.00in /  0mm
04:32 69.1 °F /  20.6 °C 67.0 °F /  19.4 °C 29.89in /  1012.1hPa Calm     93% 0.00in /  0mm
04:37 69.2 °F /  20.7 °C 67.1 °F /  19.5 °C 29.89in /  1012.1hPa Calm     93% 0.00in /  0mm
04:42 69.4 °F /  20.8 °C 67.3 °F /  19.6 °C 29.89in /  1012.1hPa North 1.0mph /  1.6km/h 1.0mph /  1.6km/h 93% 0.00in /  0mm
04:47 69.5 °F /  20.8 °C 67.4 °F /  19.7 °C 29.89in /  1012.1hPa North 1.0mph /  1.6km/h 1.0mph /  1.6km/h 93% 0.00in /  0mm
04:52 69.4 °F /  20.8 °C 67.3 °F /  19.6 °C 29.89in /  1012.1hPa North 1.0mph /  1.6km/h 1.0mph /  1.6km/h 93% 0.00in /  0mm
04:57 69.5 °F /  20.8 °C 67.4 °F /  19.7 °C 29.88in /  1011.7hPa North 1.0mph /  1.6km/h 2.0mph /  3.2km/h 93% 0.00in /  0mm
05:02 69.7 °F /  20.9 °C 67.6 °F /  19.8 °C 29.89in /  1012.1hPa North 1.0mph /  1.6km/h 1.0mph /  1.6km/h 93% 0.00in /  0mm
05:07 68.9 °F /  20.5 °C 66.8 °F /  19.3 °C 29.90in /  1012.4hPa NNW 11.0mph /  17.7km/h 11.0mph /  17.7km/h 93% 0.00in /  0mm
05:13 69.0 °F /  20.6 °C 66.9 °F /  19.4 °C 29.91in /  1012.8hPa NNW 9.0mph /  14.5km/h 16.0mph /  25.7km/h 93% 0.00in /  0mm
05:18 69.4 °F /  20.8 °C 67.0 °F /  19.4 °C 29.91in /  1012.8hPa WNW 14.0mph /  22.5km/h 14.0mph /  22.5km/h 92% 0.00in /  0mm
05:23 69.4 °F /  20.8 °C 66.3 °F /  19.1 °C 29.91in /  1012.8hPa NNW 8.0mph /  12.9km/h 12.0mph /  19.3km/h 90% 0.00in /  0mm
05:28 69.4 °F /  20.8 °C 65.7 °F /  18.7 °C 29.91in /  1012.8hPa NW 8.0mph /  12.9km/h 12.0mph /  19.3km/h 88% 0.00in /  0mm
05:33 69.4 °F /  20.8 °C 64.7 °F /  18.2 °C 29.91in /  1012.8hPa NNW 9.0mph /  14.5km/h 12.0mph /  19.3km/h 85% 0.00in /  0mm
05:38 69.5 °F /  20.8 °C 64.1 °F /  17.8 °C 29.91in /  1012.8hPa NW 9.0mph /  14.5km/h 16.0mph /  25.7km/h 83% 0.00in /  0mm
05:43 69.3 °F /  20.7 °C 63.6 °F /  17.6 °C 29.90in /  1012.4hPa NW 7.0mph /  11.3km/h 13.0mph /  20.9km/h 82% 0.00in /  0mm
05:48 69.2 °F /  20.7 °C 63.5 °F /  17.5 °C 29.90in /  1012.4hPa NNW 12.0mph /  19.3km/h 12.0mph /  19.3km/h 82% 0.00in /  0mm
05:53 69.0 °F /  20.6 °C 63.3 °F /  17.4 °C 29.90in /  1012.4hPa NW 8.0mph /  12.9km/h 10.0mph /  16.1km/h 82% 0.00in /  0mm
05:58 68.8 °F /  20.4 °C 63.1 °F /  17.3 °C 29.90in /  1012.4hPa NNW 5.0mph /  8km/h 9.0mph /  14.5km/h 82% 0.00in /  0mm
06:03 68.6 °F /  20.3 °C 62.9 °F /  17.2 °C 29.90in /  1012.4hPa North 6.0mph /  9.7km/h 7.0mph /  11.3km/h 82% 0.00in /  0mm
06:08 68.3 °F /  20.2 °C 62.9 °F /  17.2 °C 29.91in /  1012.8hPa North 5.0mph /  8km/h 9.0mph /  14.5km/h 83% 0.00in /  0mm
06:13 68.2 °F /  20.1 °C 63.2 °F /  17.3 °C 29.91in /  1012.8hPa North 9.0mph /  14.5km/h 11.0mph /  17.7km/h 84% 0.00in /  0mm
06:18 68.0 °F /  20 °C 63.0 °F /  17.2 °C 29.92in /  1013.1hPa NNW 6.0mph /  9.7km/h 9.0mph /  14.5km/h 84% 0.00in /  0mm
06:23 67.8 °F /  19.9 °C 63.1 °F /  17.3 °C 29.92in /  1013.1hPa NE 4.0mph /  6.4km/h 11.0mph /  17.7km/h 85% 0.00in /  0mm
06:28 67.5 °F /  19.7 °C 62.8 °F /  17.1 °C 29.91in /  1012.8hPa NNW 4.0mph /  6.4km/h 8.0mph /  12.9km/h 85% 0.00in /  0mm
06:33 67.2 °F /  19.6 °C 62.9 °F /  17.2 °C 29.92in /  1013.1hPa North 2.0mph /  3.2km/h 5.0mph /  8km/h 86% 0.00in /  0mm
06:38 67.0 °F /  19.4 °C 63.0 °F /  17.2 °C 29.91in /  1012.8hPa North 3.0mph /  4.8km/h 6.0mph /  9.7km/h 87% 0.00in /  0mm
06:43 66.7 °F /  19.3 °C 62.7 °F /  17.1 °C 29.92in /  1013.1hPa NNE 4.0mph /  6.4km/h 5.0mph /  8km/h 87% 0.00in /  0mm
06:48 66.6 °F /  19.2 °C 62.6 °F /  17 °C 29.92in /  1013.1hPa NNE 3.0mph /  4.8km/h 6.0mph /  9.7km/h 87% 0.00in /  0mm
06:53 66.5 °F /  19.2 °C 62.8 °F /  17.1 °C 29.92in /  1013.1hPa NE 4.0mph /  6.4km/h 4.0mph /  6.4km/h 88% 0.00in /  0mm
06:58 66.3 °F /  19.1 °C 62.6 °F /  17 °C 29.92in /  1013.1hPa NNW 2.0mph /  3.2km/h 6.0mph /  9.7km/h 88% 0.00in /  0mm
07:03 66.2 °F /  19 °C 62.5 °F /  16.9 °C 29.93in /  1013.4hPa North 2.0mph /  3.2km/h 4.0mph /  6.4km/h 88% 0.00in /  0mm
07:08 66.0 °F /  18.9 °C 62.7 °F /  17.1 °C 29.93in /  1013.4hPa North 2.0mph /  3.2km/h 4.0mph /  6.4km/h 89% 0.00in /  0mm
07:13 65.9 °F /  18.8 °C 62.6 °F /  17 °C 29.93in /  1013.4hPa NNW 1.0mph /  1.6km/h 3.0mph /  4.8km/h 89% 0.00in /  0mm
07:18 65.7 °F /  18.7 °C 62.7 °F /  17.1 °C 29.92in /  1013.1hPa Calm   3.0mph /  4.8km/h 90% 0.00in /  0mm
07:23 65.6 °F /  18.7 °C 62.6 °F /  17 °C 29.92in /  1013.1hPa NW 1.0mph /  1.6km/h 2.0mph /  3.2km/h 90% 0.00in /  0mm
07:28 65.5 °F /  18.6 °C 62.5 °F /  16.9 °C 29.91in /  1012.8hPa NW 1.0mph /  1.6km/h 1.0mph /  1.6km/h 90% 0.00in /  0mm
07:34 65.4 °F /  18.6 °C 62.4 °F /  16.9 °C 29.91in /  1012.8hPa ESE 2.0mph /  3.2km/h 2.0mph /  3.2km/h 90% 0.00in /  0mm
07:39 65.4 °F /  18.6 °C 62.4 °F /  16.9 °C 29.91in /  1012.8hPa Calm   2.0mph /  3.2km/h 90% 0.00in /  0mm
07:44 65.4 °F /  18.6 °C 62.4 °F /  16.9 °C 29.91in /  1012.8hPa North 1.0mph /  1.6km/h 1.0mph /  1.6km/h 90% 0.00in /  0mm
07:49 65.4 °F /  18.6 °C 62.4 °F /  16.9 °C 29.91in /  1012.8hPa Calm   2.0mph /  3.2km/h 90% 0.00in /  0mm
07:54 65.4 °F /  18.6 °C 62.4 °F /  16.9 °C 29.91in /  1012.8hPa Calm   1.0mph /  1.6km/h 90% 0.00in /  0mm
07:59 65.4 °F /  18.6 °C 62.4 °F /  16.9 °C 29.91in /  1012.8hPa ESE 2.0mph /  3.2km/h 2.0mph /  3.2km/h 90% 0.00in /  0mm
08:04 65.6 °F /  18.7 °C 62.6 °F /  17 °C 29.91in /  1012.8hPa ENE 1.0mph /  1.6km/h 2.0mph /  3.2km/h 90% 0.00in /  0mm
08:09 65.7 °F /  18.7 °C 62.4 °F /  16.9 °C 29.90in /  1012.4hPa ENE 2.0mph /  3.2km/h 3.0mph /  4.8km/h 89% 0.00in /  0mm
08:14 65.8 °F /  18.8 °C 62.5 °F /  16.9 °C 29.90in /  1012.4hPa NE 2.0mph /  3.2km/h 3.0mph /  4.8km/h 89% 0.00in /  0mm
08:19 65.9 °F /  18.8 °C 62.2 °F /  16.8 °C 29.89in /  1012.1hPa East 3.0mph /  4.8km/h 3.0mph /  4.8km/h 88% 0.00in /  0mm
08:24 66.3 °F /  19.1 °C 62.3 °F /  16.8 °C 29.88in /  1011.7hPa ENE 5.0mph /  8km/h 6.0mph /  9.7km/h 87% 0.00in /  0mm
08:29 66.4 °F /  19.1 °C 62.4 °F /  16.9 °C 29.88in /  1011.7hPa SE 5.0mph /  8km/h 9.0mph /  14.5km/h 87% 0.00in /  0mm
08:34 66.2 °F /  19 °C 62.5 °F /  16.9 °C 29.90in /  1012.4hPa SSW 1.0mph /  1.6km/h 4.0mph /  6.4km/h 88% 0.00in /  0mm
08:39 66.1 °F /  18.9 °C 62.5 °F /  16.9 °C 29.91in /  1012.8hPa West 2.0mph /  3.2km/h 3.0mph /  4.8km/h 88% 0.00in /  0mm
08:44 66.2 °F /  19 °C 62.5 °F /  16.9 °C 29.92in /  1013.1hPa West 3.0mph /  4.8km/h 16.0mph /  25.7km/h 88% 0.00in /  0mm
08:49 66.4 °F /  19.1 °C 62.4 °F /  16.9 °C 29.93in /  1013.4hPa SW 5.0mph /  8km/h 5.0mph /  8km/h 87% 0.00in /  0mm
08:54 66.2 °F /  19 °C 62.5 °F /  16.9 °C 29.93in /  1013.4hPa SSE 2.0mph /  3.2km/h 12.0mph /  19.3km/h 88% 0.00in /  0mm
08:59 65.9 °F /  18.8 °C 62.6 °F /  17 °C 29.93in /  1013.4hPa SSW 2.0mph /  3.2km/h 5.0mph /  8km/h 89% 0.00in /  0mm
09:04 65.9 °F /  18.8 °C 62.6 °F /  17 °C 29.93in /  1013.4hPa Calm   3.0mph /  4.8km/h 89% 0.00in /  0mm
09:09 66.0 °F /  18.9 °C 62.7 °F /  17.1 °C 29.93in /  1013.4hPa ESE 6.0mph /  9.7km/h 6.0mph /  9.7km/h 89% 0.00in /  0mm
09:14 66.0 °F /  18.9 °C 63.0 °F /  17.2 °C 29.93in /  1013.4hPa SE 4.0mph /  6.4km/h 7.0mph /  11.3km/h 90% 0.00in /  0mm
09:19 66.2 °F /  19 °C 62.9 °F /  17.2 °C 29.95in /  1014.1hPa WNW 4.0mph /  6.4km/h 5.0mph /  8km/h 89% 0.00in /  0mm
09:24 66.3 °F /  19.1 °C 63.0 °F /  17.2 °C 29.94in /  1013.8hPa ESE 3.0mph /  4.8km/h 3.0mph /  4.8km/h 89% 0.00in /  0mm
09:29 66.5 °F /  19.2 °C 63.2 °F /  17.3 °C 29.94in /  1013.8hPa Calm   2.0mph /  3.2km/h 89% 0.00in /  0mm
09:34 66.7 °F /  19.3 °C 63.4 °F /  17.4 °C 29.94in /  1013.8hPa ENE 2.0mph /  3.2km/h 2.0mph /  3.2km/h 89% 0.00in /  0mm
09:39 67.0 °F /  19.4 °C 63.7 °F /  17.6 °C 29.94in /  1013.8hPa Calm   1.0mph /  1.6km/h 89% 0.00in /  0mm
09:44 67.2 °F /  19.6 °C 63.8 °F /  17.7 °C 29.94in /  1013.8hPa ENE 3.0mph /  4.8km/h 3.0mph /  4.8km/h 89% 0.00in /  0mm
09:49 67.3 °F /  19.6 °C 64.0 °F /  17.8 °C 29.94in /  1013.8hPa Calm   3.0mph /  4.8km/h 89% 0.00in /  0mm
09:54 67.7 °F /  19.8 °C 63.7 °F /  17.6 °C 29.94in /  1013.8hPa NE 3.0mph /  4.8km/h 4.0mph /  6.4km/h 87% 0.00in /  0mm
09:59 68.0 °F /  20 °C 63.3 °F /  17.4 °C 29.94in /  1013.8hPa ENE 4.0mph /  6.4km/h 5.0mph /  8km/h 85% 0.00in /  0mm
10:04 68.3 °F /  20.2 °C 63.6 °F /  17.6 °C 29.94in /  1013.8hPa ENE 3.0mph /  4.8km/h 5.0mph /  8km/h 85% 0.00in /  0mm
10:09 68.4 °F /  20.2 °C 63.7 °F /  17.6 °C 29.94in /  1013.8hPa East 3.0mph /  4.8km/h 7.0mph /  11.3km/h 85% 0.00in /  0mm
10:14 68.5 °F /  20.3 °C 63.5 °F /  17.5 °C 29.94in /  1013.8hPa ENE 6.0mph /  9.7km/h 7.0mph /  11.3km/h 84% 0.00in /  0mm
10:19 68.5 °F /  20.3 °C 63.5 °F /  17.5 °C 29.94in /  1013.8hPa ENE 4.0mph /  6.4km/h 8.0mph /  12.9km/h 84% 0.00in /  0mm
10:24 68.6 °F /  20.3 °C 63.9 °F /  17.7 °C 29.94in /  1013.8hPa NE 3.0mph /  4.8km/h 6.0mph /  9.7km/h 85% 0.00in /  0mm
10:29 68.8 °F /  20.4 °C 63.8 °F /  17.7 °C 29.94in /  1013.8hPa ESE 3.0mph /  4.8km/h 8.0mph /  12.9km/h 84% 0.00in /  0mm
10:34 68.9 °F /  20.5 °C 63.9 °F /  17.7 °C 29.94in /  1013.8hPa SE 4.0mph /  6.4km/h 8.0mph /  12.9km/h 84% 0.00in /  0mm
10:39 69.2 °F /  20.7 °C 64.5 °F /  18.1 °C 29.94in /  1013.8hPa ESE 5.0mph /  8km/h 5.0mph /  8km/h 85% 0.00in /  0mm
10:44 69.6 °F /  20.9 °C 64.6 °F /  18.1 °C 29.94in /  1013.8hPa SE 3.0mph /  4.8km/h 7.0mph /  11.3km/h 84% 0.00in /  0mm
10:49 69.9 °F /  21.1 °C 64.5 °F /  18.1 °C 29.94in /  1013.8hPa SE 5.0mph /  8km/h 5.0mph /  8km/h 83% 0.00in /  0mm
10:54 70.1 °F /  21.2 °C 64.4 °F /  18 °C 29.94in /  1013.8hPa SE 3.0mph /  4.8km/h 6.0mph /  9.7km/h 82% 0.00in /  0mm
11:00 70.6 °F /  21.4 °C 64.8 °F /  18.2 °C 29.94in /  1013.8hPa SE 4.0mph /  6.4km/h 7.0mph /  11.3km/h 82% 0.00in /  0mm
11:05 71.1 °F /  21.7 °C 65.3 °F /  18.5 °C 29.94in /  1013.8hPa SE 5.0mph /  8km/h 5.0mph /  8km/h 82% 0.00in /  0mm
11:10 71.4 °F /  21.9 °C 64.9 °F /  18.3 °C 29.94in /  1013.8hPa South 2.0mph /  3.2km/h 6.0mph /  9.7km/h 80% 0.00in /  0mm
11:15 71.6 °F /  22 °C 65.5 °F /  18.6 °C 29.94in /  1013.8hPa ESE 4.0mph /  6.4km/h 6.0mph /  9.7km/h 81% 0.00in /  0mm
11:20 72.1 °F /  22.3 °C 65.9 °F /  18.8 °C 29.94in /  1013.8hPa ESE 3.0mph /  4.8km/h 7.0mph /  11.3km/h 81% 0.00in /  0mm
11:25 72.5 °F /  22.5 °C 65.3 °F /  18.5 °C 29.94in /  1013.8hPa ESE 3.0mph /  4.8km/h 6.0mph /  9.7km/h 78% 0.00in /  0mm
11:30 73.1 °F /  22.8 °C 65.5 °F /  18.6 °C 29.94in /  1013.8hPa SSW 4.0mph /  6.4km/h 6.0mph /  9.7km/h 77% 0.00in /  0mm
11:35 73.2 °F /  22.9 °C 65.2 °F /  18.4 °C 29.94in /  1013.8hPa ESE 6.0mph /  9.7km/h 7.0mph /  11.3km/h 76% 0.00in /  0mm
11:40 73.4 °F /  23 °C 65.8 °F /  18.8 °C 29.94in /  1013.8hPa SE 6.0mph /  9.7km/h 7.0mph /  11.3km/h 77% 0.00in /  0mm
11:45 73.5 °F /  23.1 °C 65.9 °F /  18.8 °C 29.94in /  1013.8hPa SE 6.0mph /  9.7km/h 8.0mph /  12.9km/h 77% 0.00in /  0mm
11:51 73.6 °F /  23.1 °C 65.6 °F /  18.7 °C 29.94in /  1013.8hPa SE 7.0mph /  11.3km/h 8.0mph /  12.9km/h 76% 0.00in /  0mm
11:56 73.8 °F /  23.2 °C 65.8 °F /  18.8 °C 29.94in /  1013.8hPa SSW 3.0mph /  4.8km/h 9.0mph /  14.5km/h 76% 0.00in /  0mm
12:01 74.2 °F /  23.4 °C 65.4 °F /  18.6 °C 29.94in /  1013.8hPa SE 7.0mph /  11.3km/h 9.0mph /  14.5km/h 74% 0.00in /  0mm
12:06 74.8 °F /  23.8 °C 65.2 °F /  18.4 °C 29.94in /  1013.8hPa South 4.0mph /  6.4km/h 8.0mph /  12.9km/h 72% 0.00in /  0mm
12:11 75.5 °F /  24.2 °C 65.8 °F /  18.8 °C 29.94in /  1013.8hPa SE 5.0mph /  8km/h 7.0mph /  11.3km/h 72% 0.00in /  0mm
12:16 76.1 °F /  24.5 °C 65.6 °F /  18.7 °C 29.94in /  1013.8hPa Calm   5.0mph /  8km/h 70% 0.00in /  0mm
12:21 76.5 °F /  24.7 °C 65.6 °F /  18.7 °C 29.94in /  1013.8hPa SE 1.0mph /  1.6km/h 7.0mph /  11.3km/h 69% 0.00in /  0mm
12:26 76.9 °F /  24.9 °C 65.5 °F /  18.6 °C 29.94in /  1013.8hPa SE 4.0mph /  6.4km/h 6.0mph /  9.7km/h 68% 0.00in /  0mm
12:31 77.1 °F /  25.1 °C 65.7 °F /  18.7 °C 29.93in /  1013.4hPa ESE 4.0mph /  6.4km/h 5.0mph /  8km/h 68% 0.00in /  0mm
12:36 77.6 °F /  25.3 °C 66.2 °F /  19 °C 29.93in /  1013.4hPa SSE 3.0mph /  4.8km/h 6.0mph /  9.7km/h 68% 0.00in /  0mm
12:41 78.2 °F /  25.7 °C 66.8 °F /  19.3 °C 29.93in /  1013.4hPa SE 7.0mph /  11.3km/h 9.0mph /  14.5km/h 68% 0.00in /  0mm
12:46 78.2 °F /  25.7 °C 66.4 °F /  19.1 °C 29.93in /  1013.4hPa South 4.0mph /  6.4km/h 7.0mph /  11.3km/h 67% 0.00in /  0mm
12:51 78.8 °F /  26 °C 66.1 °F /  18.9 °C 29.93in /  1013.4hPa South 3.0mph /  4.8km/h 6.0mph /  9.7km/h 65% 0.00in /  0mm
12:56 79.2 °F /  26.2 °C 66.9 °F /  19.4 °C 29.92in /  1013.1hPa SSE 1.0mph /  1.6km/h 6.0mph /  9.7km/h 66% 0.00in /  0mm
13:01 79.7 °F /  26.5 °C 66.5 °F /  19.2 °C 29.92in /  1013.1hPa SSE 8.0mph /  12.9km/h 8.0mph /  12.9km/h 64% 0.00in /  0mm
13:06 79.8 °F /  26.6 °C 67.9 °F /  19.9 °C 29.92in /  1013.1hPa SE 2.0mph /  3.2km/h 5.0mph /  8km/h 67% 0.00in /  0mm
13:11 80.2 °F /  26.8 °C 67.4 °F /  19.7 °C 29.92in /  1013.1hPa ESE 3.0mph /  4.8km/h 5.0mph /  8km/h 65% 0.00in /  0mm
13:16 80.6 °F /  27 °C 68.2 °F /  20.1 °C 29.92in /  1013.1hPa SSE 4.0mph /  6.4km/h 5.0mph /  8km/h 66% 0.00in /  0mm
13:21 80.6 °F /  27 °C 66.4 °F /  19.1 °C 29.92in /  1013.1hPa WSW 3.0mph /  4.8km/h 7.0mph /  11.3km/h 62% 0.00in /  0mm
13:26 81.1 °F /  27.3 °C 65.9 °F /  18.8 °C 29.92in /  1013.1hPa South 3.0mph /  4.8km/h 8.0mph /  12.9km/h 60% 0.00in /  0mm
13:31 81.6 °F /  27.6 °C 66.4 °F /  19.1 °C 29.92in /  1013.1hPa South 4.0mph /  6.4km/h 7.0mph /  11.3km/h 60% 0.00in /  0mm
13:36 82.0 °F /  27.8 °C 66.8 °F /  19.3 °C 29.92in /  1013.1hPa SSW 3.0mph /  4.8km/h 3.0mph /  4.8km/h 60% 0.00in /  0mm
13:41 82.4 °F /  28 °C 64.6 °F /  18.1 °C 29.92in /  1013.1hPa ESE 5.0mph /  8km/h 9.0mph /  14.5km/h 55% 0.00in /  0mm
13:47 82.3 °F /  27.9 °C 66.1 °F /  18.9 °C 29.92in /  1013.1hPa SE 2.0mph /  3.2km/h 5.0mph /  8km/h 58% 0.00in /  0mm
13:52 82.8 °F /  28.2 °C 63.9 °F /  17.7 °C 29.91in /  1012.8hPa SE 1.0mph /  1.6km/h 2.0mph /  3.2km/h 53% 0.00in /  0mm
13:57 83.3 °F /  28.5 °C 65.5 °F /  18.6 °C 29.91in /  1012.8hPa Calm   4.0mph /  6.4km/h 55% 0.00in /  0mm
14:02 84.1 °F /  28.9 °C 64.6 °F /  18.1 °C 29.91in /  1012.8hPa ESE 1.0mph /  1.6km/h 2.0mph /  3.2km/h 52% 0.00in /  0mm
14:04 84.3 °F /  29.1 °C 66.4 °F /  19.1 °C 29.91in /  1012.8hPa WSW 3.0mph /  4.8km/h 5.0mph /  8km/h 55% 0.00in /  0mm
14:09 84.2 °F /  29 °C 65.2 °F /  18.4 °C 29.91in /  1012.8hPa West 7.0mph /  11.3km/h 7.0mph /  11.3km/h 53% 0.00in /  0mm
14:14 83.5 °F /  28.6 °C 64.0 °F /  17.8 °C 29.91in /  1012.8hPa NW 3.0mph /  4.8km/h 6.0mph /  9.7km/h 52% 0.00in /  0mm
14:19 83.6 °F /  28.7 °C 65.7 °F /  18.7 °C 29.91in /  1012.8hPa WSW 1.0mph /  1.6km/h 3.0mph /  4.8km/h 55% 0.00in /  0mm
14:24 84.4 °F /  29.1 °C 65.9 °F /  18.8 °C 29.91in /  1012.8hPa WNW 4.0mph /  6.4km/h 4.0mph /  6.4km/h 54% 0.00in /  0mm
14:29 84.6 °F /  29.2 °C 65.6 °F /  18.7 °C 29.91in /  1012.8hPa SSW 3.0mph /  4.8km/h 5.0mph /  8km/h 53% 0.00in /  0mm
14:34 84.7 °F /  29.3 °C 63.5 °F /  17.5 °C 29.90in /  1012.4hPa NNW 3.0mph /  4.8km/h 5.0mph /  8km/h 49% 0.00in /  0mm
14:39 84.7 °F /  29.3 °C 63.5 °F /  17.5 °C 29.90in /  1012.4hPa SSW 1.0mph /  1.6km/h 4.0mph /  6.4km/h 49% 0.00in /  0mm
14:44 85.1 °F /  29.5 °C 63.8 °F /  17.7 °C 29.90in /  1012.4hPa West 2.0mph /  3.2km/h 4.0mph /  6.4km/h 49% 0.00in /  0mm
14:49 85.5 °F /  29.7 °C 64.2 °F /  17.9 °C 29.90in /  1012.4hPa West 4.0mph /  6.4km/h 4.0mph /  6.4km/h 49% 0.00in /  0mm
14:54 85.1 °F /  29.5 °C 63.8 °F /  17.7 °C 29.90in /  1012.4hPa SSW 2.0mph /  3.2km/h 4.0mph /  6.4km/h 49% 0.00in /  0mm
14:59 85.0 °F /  29.4 °C 64.3 °F /  17.9 °C 29.89in /  1012.1hPa West 1.0mph /  1.6km/h 4.0mph /  6.4km/h 50% 0.00in /  0mm
15:04 85.6 °F /  29.8 °C 64.3 °F /  17.9 °C 29.89in /  1012.1hPa WNW 4.0mph /  6.4km/h 4.0mph /  6.4km/h 49% 0.00in /  0mm
15:09 85.2 °F /  29.6 °C 64.5 °F /  18.1 °C 29.89in /  1012.1hPa NNE 4.0mph /  6.4km/h 5.0mph /  8km/h 50% 0.00in /  0mm
15:10 85.1 °F /  29.5 °C 64.4 °F /  18 °C 29.89in /  1012.1hPa North 3.0mph /  4.8km/h 5.0mph /  8km/h 50% 0.00in /  0mm
15:15 84.8 °F /  29.3 °C 64.7 °F /  18.2 °C 29.89in /  1012.1hPa ESE 1.0mph /  1.6km/h 3.0mph /  4.8km/h 51% 0.00in /  0mm
15:20 84.7 °F /  29.3 °C 65.1 °F /  18.4 °C 29.89in /  1012.1hPa WSW 1.0mph /  1.6km/h 2.0mph /  3.2km/h 52% 0.00in /  0mm
15:21 84.8 °F /  29.3 °C 65.2 °F /  18.4 °C 29.89in /  1012.1hPa Calm   2.0mph /  3.2km/h 52% 0.00in /  0mm
15:26 84.9 °F /  29.4 °C 64.8 °F /  18.2 °C 29.89in /  1012.1hPa WNW 4.0mph /  6.4km/h 4.0mph /  6.4km/h 51% 0.00in /  0mm
15:31 84.3 °F /  29.1 °C 65.3 °F /  18.5 °C 29.89in /  1012.1hPa West 3.0mph /  4.8km/h 6.0mph /  9.7km/h 53% 0.00in /  0mm
15:36 83.8 °F /  28.8 °C 64.9 °F /  18.3 °C 29.89in /  1012.1hPa WNW 5.0mph /  8km/h 7.0mph /  11.3km/h 53% 0.00in /  0mm
15:41 83.2 °F /  28.4 °C 65.9 °F /  18.8 °C 29.89in /  1012.1hPa WNW 3.0mph /  4.8km/h 7.0mph /  11.3km/h 56% 0.00in /  0mm
15:46 82.6 °F /  28.1 °C 65.8 °F /  18.8 °C 29.89in /  1012.1hPa WNW 4.0mph /  6.4km/h 9.0mph /  14.5km/h 57% 0.00in /  0mm
15:51 82.0 °F /  27.8 °C 65.8 °F /  18.8 °C 29.89in /  1012.1hPa WNW 11.0mph /  17.7km/h 15.0mph /  24.1km/h 58% 0.00in /  0mm
15:56 80.8 °F /  27.1 °C 65.6 °F /  18.7 °C 29.89in /  1012.1hPa NW 11.0mph /  17.7km/h 13.0mph /  20.9km/h 60% 0.00in /  0mm
16:01 79.8 °F /  26.6 °C 65.2 °F /  18.4 °C 29.89in /  1012.1hPa WNW 7.0mph /  11.3km/h 9.0mph /  14.5km/h 61% 0.00in /  0mm
16:06 79.0 °F /  26.1 °C 63.9 °F /  17.7 °C 29.89in /  1012.1hPa WNW 12.0mph /  19.3km/h 15.0mph /  24.1km/h 60% 0.00in /  0mm
16:11 78.3 °F /  25.7 °C 63.8 °F /  17.7 °C 29.89in /  1012.1hPa WNW 8.0mph /  12.9km/h 10.0mph /  16.1km/h 61% 0.00in /  0mm
16:16 77.9 °F /  25.5 °C 63.8 °F /  17.7 °C 29.89in /  1012.1hPa West 4.0mph /  6.4km/h 7.0mph /  11.3km/h 62% 0.00in /  0mm
16:21 77.3 °F /  25.2 °C 62.8 °F /  17.1 °C 29.89in /  1012.1hPa West 5.0mph /  8km/h 13.0mph /  20.9km/h 61% 0.00in /  0mm
16:26 75.3 °F /  24.1 °C 63.2 °F /  17.3 °C 29.89in /  1012.1hPa SSW 4.0mph /  6.4km/h 10.0mph /  16.1km/h 66% 0.00in /  0mm
16:31 74.7 °F /  23.7 °C 63.0 °F /  17.2 °C 29.89in /  1012.1hPa SW 7.0mph /  11.3km/h 11.0mph /  17.7km/h 67% 0.00in /  0mm
16:37 74.3 °F /  23.5 °C 63.5 °F /  17.5 °C 29.89in /  1012.1hPa West 7.0mph /  11.3km/h 11.0mph /  17.7km/h 69% 0.00in /  0mm
16:42 74.3 °F /  23.5 °C 63.5 °F /  17.5 °C 29.89in /  1012.1hPa West 5.0mph /  8km/h 7.0mph /  11.3km/h 69% 0.00in /  0mm
16:47 74.0 °F /  23.3 °C 64.0 °F /  17.8 °C 29.89in /  1012.1hPa WSW 3.0mph /  4.8km/h 6.0mph /  9.7km/h 71% 0.00in /  0mm
16:52 73.7 °F /  23.2 °C 64.5 °F /  18.1 °C 29.89in /  1012.1hPa WSW 5.0mph /  8km/h 6.0mph /  9.7km/h 73% 0.00in /  0mm
16:57 73.5 °F /  23.1 °C 64.3 °F /  17.9 °C 29.88in /  1011.7hPa SW 3.0mph /  4.8km/h 5.0mph /  8km/h 73% 0.00in /  0mm
17:02 73.7 °F /  23.2 °C 64.1 °F /  17.8 °C 29.88in /  1011.7hPa SW 3.0mph /  4.8km/h 6.0mph /  9.7km/h 72% 0.00in /  0mm
17:07 73.9 °F /  23.3 °C 64.3 °F /  17.9 °C 29.88in /  1011.7hPa SSW 3.0mph /  4.8km/h 4.0mph /  6.4km/h 72% 0.00in /  0mm
17:12 73.7 °F /  23.2 °C 64.9 °F /  18.3 °C 29.88in /  1011.7hPa SW 4.0mph /  6.4km/h 5.0mph /  8km/h 74% 0.00in /  0mm
17:17 73.1 °F /  22.8 °C 65.5 °F /  18.6 °C 29.88in /  1011.7hPa West 2.0mph /  3.2km/h 4.0mph /  6.4km/h 77% 0.00in /  0mm
17:22 72.7 °F /  22.6 °C 65.4 °F /  18.6 °C 29.87in /  1011.4hPa SSW 2.0mph /  3.2km/h 4.0mph /  6.4km/h 78% 0.00in /  0mm
17:27 72.4 °F /  22.4 °C 66.2 °F /  19 °C 29.86in /  1011.1hPa SSW 3.0mph /  4.8km/h 5.0mph /  8km/h 81% 0.00in /  0mm
17:32 72.2 °F /  22.3 °C 65.7 °F /  18.7 °C 29.86in /  1011.1hPa WSW 3.0mph /  4.8km/h 3.0mph /  4.8km/h 80% 0.00in /  0mm
17:38 72.4 °F /  22.4 °C 66.2 °F /  19 °C 29.87in /  1011.4hPa WSW 1.0mph /  1.6km/h 2.0mph /  3.2km/h 81% 0.00in /  0mm
17:43 72.6 °F /  22.6 °C 67.2 °F /  19.6 °C 29.86in /  1011.1hPa Calm   2.0mph /  3.2km/h 83% 0.00in /  0mm
17:48 72.8 °F /  22.7 °C 67.7 °F /  19.8 °C 29.86in /  1011.1hPa WSW 1.0mph /  1.6km/h 1.0mph /  1.6km/h 84% 0.00in /  0mm
17:53 73.2 °F /  22.9 °C 67.4 °F /  19.7 °C 29.86in /  1011.1hPa WSW 1.0mph /  1.6km/h 1.0mph /  1.6km/h 82% 0.00in /  0mm
17:58 73.6 °F /  23.1 °C 67.8 °F /  19.9 °C 29.85in /  1010.7hPa Calm   1.0mph /  1.6km/h 82% 0.00in /  0mm
18:03 74.0 °F /  23.3 °C 67.8 °F /  19.9 °C 29.85in /  1010.7hPa SW 1.0mph /  1.6km/h 1.0mph /  1.6km/h 81% 0.00in /  0mm
18:08 74.4 °F /  23.6 °C 69.3 °F /  20.7 °C 29.85in /  1010.7hPa West 1.0mph /  1.6km/h 2.0mph /  3.2km/h 84% 0.00in /  0mm
18:13 74.3 °F /  23.5 °C 69.5 °F /  20.8 °C 29.85in /  1010.7hPa Calm   1.0mph /  1.6km/h 85% 0.00in /  0mm
18:18 74.4 °F /  23.6 °C 69.3 °F /  20.7 °C 29.85in /  1010.7hPa NNW 1.0mph /  1.6km/h 1.0mph /  1.6km/h 84% 0.00in /  0mm
18:23 74.4 °F /  23.6 °C 68.2 °F /  20.1 °C 29.85in /  1010.7hPa Calm   1.0mph /  1.6km/h 81% 0.00in /  0mm
18:28 74.5 °F /  23.6 °C 67.9 °F /  19.9 °C 29.85in /  1010.7hPa Calm   1.0mph /  1.6km/h 80% 0.00in /  0mm
18:33 74.7 °F /  23.7 °C 67.8 °F /  19.9 °C 29.85in /  1010.7hPa Calm   1.0mph /  1.6km/h 79% 0.00in /  0mm
18:38 75.0 °F /  23.9 °C 68.4 °F /  20.2 °C 29.85in /  1010.7hPa Calm     80% 0.00in /  0mm
18:43 75.5 °F /  24.2 °C 68.2 °F /  20.1 °C 29.84in /  1010.4hPa Calm     78% 0.00in /  0mm
18:48 76.2 °F /  24.6 °C 68.1 °F /  20.1 °C 29.85in /  1010.7hPa Calm     76% 0.00in /  0mm
18:53 76.7 °F /  24.8 °C 68.6 °F /  20.3 °C 29.85in /  1010.7hPa Calm     76% 0.00in /  0mm
18:59 77.5 °F /  25.3 °C 67.4 °F /  19.7 °C 29.85in /  1010.7hPa Calm     71% 0.00in /  0mm
19:04 77.7 °F /  25.4 °C 67.1 °F /  19.5 °C 29.85in /  1010.7hPa Calm     70% 0.00in /  0mm
19:09 77.6 °F /  25.3 °C 67.9 °F /  19.9 °C 29.84in /  1010.4hPa WSW 1.0mph /  1.6km/h 1.0mph /  1.6km/h 72% 0.00in /  0mm
19:14 77.3 °F /  25.2 °C 69.2 °F /  20.7 °C 29.84in /  1010.4hPa Calm   1.0mph /  1.6km/h 76% 0.00in /  0mm
19:19 77.1 °F /  25.1 °C 69.0 °F /  20.6 °C 29.84in /  1010.4hPa Calm   1.0mph /  1.6km/h 76% 0.00in /  0mm
19:24 77.0 °F /  25 °C 67.7 °F /  19.8 °C 29.85in /  1010.7hPa Calm   1.0mph /  1.6km/h 73% 0.00in /  0mm
19:29 77.7 °F /  25.4 °C 68.8 °F /  20.4 °C 29.84in /  1010.4hPa Calm     74% 0.00in /  0mm
19:34 78.3 °F /  25.7 °C 67.3 °F /  19.6 °C 29.84in /  1010.4hPa Calm     69% 0.00in /  0mm
19:39 78.5 °F /  25.8 °C 69.9 °F /  21.1 °C 29.84in /  1010.4hPa Calm     75% 0.00in /  0mm
19:44 78.2 °F /  25.7 °C 69.2 °F /  20.7 °C 29.85in /  1010.7hPa ENE 1.0mph /  1.6km/h 1.0mph /  1.6km/h 74% 0.00in /  0mm
19:49 77.5 °F /  25.3 °C 69.7 °F /  20.9 °C 29.85in /  1010.7hPa NE 2.0mph /  3.2km/h 2.0mph /  3.2km/h 77% 0.00in /  0mm
19:54 76.9 °F /  24.9 °C 68.8 °F /  20.4 °C 29.85in /  1010.7hPa NNE 1.0mph /  1.6km/h 2.0mph /  3.2km/h 76% 0.00in /  0mm
20:00 76.7 °F /  24.8 °C 68.9 °F /  20.5 °C 29.85in /  1010.7hPa NNE 1.0mph /  1.6km/h 1.0mph /  1.6km/h 77% 0.00in /  0mm
20:04 76.7 °F /  24.8 °C 69.7 °F /  20.9 °C 29.85in /  1010.7hPa North 2.0mph /  3.2km/h 2.0mph /  3.2km/h 79% 0.00in /  0mm
20:10 76.4 °F /  24.7 °C 70.1 °F /  21.2 °C 29.86in /  1011.1hPa North 1.0mph /  1.6km/h 2.0mph /  3.2km/h 81% 0.00in /  0mm
20:15 75.9 °F /  24.4 °C 70.4 °F /  21.3 °C 29.85in /  1010.7hPa North 1.0mph /  1.6km/h 1.0mph /  1.6km/h 83% 0.00in /  0mm
20:20 75.3 °F /  24.1 °C 70.1 °F /  21.2 °C 29.86in /  1011.1hPa North 1.0mph /  1.6km/h 1.0mph /  1.6km/h 84% 0.00in /  0mm
20:21 75.2 °F /  24 °C 69.7 °F /  20.9 °C 29.86in /  1011.1hPa North 1.0mph /  1.6km/h 1.0mph /  1.6km/h 83% 0.00in /  0mm
20:26 74.6 °F /  23.7 °C 69.4 °F /  20.8 °C 29.86in /  1011.1hPa NNE 1.0mph /  1.6km/h 2.0mph /  3.2km/h 84% 0.00in /  0mm
20:31 73.9 °F /  23.3 °C 67.3 °F /  19.6 °C 29.86in /  1011.1hPa NNE 2.0mph /  3.2km/h 2.0mph /  3.2km/h 80% 0.00in /  0mm
20:36 73.7 °F /  23.2 °C 67.9 °F /  19.9 °C 29.86in /  1011.1hPa NNE 2.0mph /  3.2km/h 2.0mph /  3.2km/h 82% 0.00in /  0mm
20:41 73.4 °F /  23 °C 66.9 °F /  19.4 °C 29.86in /  1011.1hPa NE 3.0mph /  4.8km/h 3.0mph /  4.8km/h 80% 0.00in /  0mm
20:46 73.3 °F /  22.9 °C 66.8 °F /  19.3 °C 29.86in /  1011.1hPa NNE 2.0mph /  3.2km/h 2.0mph /  3.2km/h 80% 0.00in /  0mm
20:51 73.2 °F /  22.9 °C 66.7 °F /  19.3 °C 29.86in /  1011.1hPa NNE 1.0mph /  1.6km/h 2.0mph /  3.2km/h 80% 0.00in /  0mm
20:56 72.9 °F /  22.7 °C 66.7 °F /  19.3 °C 29.85in /  1010.7hPa Calm     81% 0.00in /  0mm
21:01 72.5 °F /  22.5 °C 66.7 °F /  19.3 °C 29.86in /  1011.1hPa NNE 1.0mph /  1.6km/h 1.0mph /  1.6km/h 82% 0.00in /  0mm
21:06 72.3 °F /  22.4 °C 66.8 °F /  19.3 °C 29.86in /  1011.1hPa NE 3.0mph /  4.8km/h 3.0mph /  4.8km/h 83% 0.00in /  0mm
21:11 71.9 °F /  22.2 °C 66.5 °F /  19.2 °C 29.86in /  1011.1hPa NE 2.0mph /  3.2km/h 2.0mph /  3.2km/h 83% 0.00in /  0mm
21:16 72.2 °F /  22.3 °C 66.8 °F /  19.3 °C 29.87in /  1011.4hPa NE 3.0mph /  4.8km/h 5.0mph /  8km/h 83% 0.00in /  0mm
21:21 72.7 °F /  22.6 °C 66.9 °F /  19.4 °C 29.87in /  1011.4hPa NNE 3.0mph /  4.8km/h 6.0mph /  9.7km/h 82% 0.00in /  0mm
21:26 72.8 °F /  22.7 °C 67.0 °F /  19.4 °C 29.88in /  1011.7hPa NE 2.0mph /  3.2km/h 5.0mph /  8km/h 82% 0.00in /  0mm
21:32 72.8 °F /  22.7 °C 67.0 °F /  19.4 °C 29.88in /  1011.7hPa NE 1.0mph /  1.6km/h 3.0mph /  4.8km/h 82% 0.00in /  0mm
21:37 72.7 °F /  22.6 °C 66.9 °F /  19.4 °C 29.88in /  1011.7hPa ENE 1.0mph /  1.6km/h 3.0mph /  4.8km/h 82% 0.00in /  0mm
21:42 72.7 °F /  22.6 °C 66.5 °F /  19.2 °C 29.88in /  1011.7hPa NE 4.0mph /  6.4km/h 4.0mph /  6.4km/h 81% 0.00in /  0mm
21:47 72.7 °F /  22.6 °C 66.2 °F /  19 °C 29.88in /  1011.7hPa ENE 2.0mph /  3.2km/h 5.0mph /  8km/h 80% 0.00in /  0mm
21:52 72.8 °F /  22.7 °C 65.9 °F /  18.8 °C 29.88in /  1011.7hPa NE 4.0mph /  6.4km/h 5.0mph /  8km/h 79% 0.00in /  0mm
21:57 72.8 °F /  22.7 °C 65.6 °F /  18.7 °C 29.88in /  1011.7hPa ENE 2.0mph /  3.2km/h 3.0mph /  4.8km/h 78% 0.00in /  0mm
22:02 72.7 °F /  22.6 °C 65.4 °F /  18.6 °C 29.88in /  1011.7hPa ENE 3.0mph /  4.8km/h 3.0mph /  4.8km/h 78% 0.00in /  0mm
22:07 72.6 °F /  22.6 °C 65.0 °F /  18.3 °C 29.88in /  1011.7hPa NNE 6.0mph /  9.7km/h 10.0mph /  16.1km/h 77% 0.00in /  0mm
22:12 72.8 °F /  22.7 °C 65.2 °F /  18.4 °C 29.88in /  1011.7hPa NE 3.0mph /  4.8km/h 8.0mph /  12.9km/h 77% 0.00in /  0mm
22:17 72.9 °F /  22.7 °C 65.3 °F /  18.5 °C 29.88in /  1011.7hPa NNE 3.0mph /  4.8km/h 8.0mph /  12.9km/h 77% 0.00in /  0mm
22:22 72.5 °F /  22.5 °C 65.3 °F /  18.5 °C 29.89in /  1012.1hPa NNE 3.0mph /  4.8km/h 5.0mph /  8km/h 78% 0.00in /  0mm
22:27 72.2 °F /  22.3 °C 65.0 °F /  18.3 °C 29.89in /  1012.1hPa ENE 1.0mph /  1.6km/h 5.0mph /  8km/h 78% 0.00in /  0mm
22:32 72.0 °F /  22.2 °C 64.8 °F /  18.2 °C 29.88in /  1011.7hPa NE 2.0mph /  3.2km/h 4.0mph /  6.4km/h 78% 0.00in /  0mm
22:37 72.0 °F /  22.2 °C 64.8 °F /  18.2 °C 29.89in /  1012.1hPa NE 2.0mph /  3.2km/h 5.0mph /  8km/h 78% 0.00in /  0mm
22:42 71.8 °F /  22.1 °C 64.6 °F /  18.1 °C 29.89in /  1012.1hPa ENE 2.0mph /  3.2km/h 3.0mph /  4.8km/h 78% 0.00in /  0mm
22:47 71.9 °F /  22.2 °C 64.7 °F /  18.2 °C 29.89in /  1012.1hPa ENE 1.0mph /  1.6km/h 4.0mph /  6.4km/h 78% 0.00in /  0mm
22:52 71.8 °F /  22.1 °C 64.6 °F /  18.1 °C 29.89in /  1012.1hPa SE 2.0mph /  3.2km/h 3.0mph /  4.8km/h 78% 0.00in /  0mm
22:57 71.1 °F /  21.7 °C 64.6 °F /  18.1 °C 29.89in /  1012.1hPa SE 1.0mph /  1.6km/h 4.0mph /  6.4km/h 80% 0.00in /  0mm
23:02 70.5 °F /  21.4 °C 64.4 °F /  18 °C 29.89in /  1012.1hPa ESE 2.0mph /  3.2km/h 3.0mph /  4.8km/h 81% 0.00in /  0mm
23:07 70.4 °F /  21.3 °C 64.3 °F /  17.9 °C 29.89in /  1012.1hPa Calm   2.0mph /  3.2km/h 81% 0.00in /  0mm
23:12 70.1 °F /  21.2 °C 64.0 °F /  17.8 °C 29.89in /  1012.1hPa Calm     81% 0.00in /  0mm
23:17 69.7 °F /  20.9 °C 64.0 °F /  17.8 °C 29.89in /  1012.1hPa Calm     82% 0.00in /  0mm
23:22 69.4 °F /  20.8 °C 63.7 °F /  17.6 °C 29.89in /  1012.1hPa Calm     82% 0.00in /  0mm
23:27 69.0 °F /  20.6 °C 63.6 °F /  17.6 °C 29.89in /  1012.1hPa SE 1.0mph /  1.6km/h 3.0mph /  4.8km/h 83% 0.00in /  0mm
23:32 68.8 °F /  20.4 °C 63.4 °F /  17.4 °C 29.89in /  1012.1hPa Calm     83% 0.00in /  0mm
23:37 68.9 °F /  20.5 °C 63.2 °F /  17.3 °C 29.89in /  1012.1hPa Calm   3.0mph /  4.8km/h 82% 0.00in /  0mm
23:42 68.9 °F /  20.5 °C 63.2 °F /  17.3 °C 29.89in /  1012.1hPa ESE 2.0mph /  3.2km/h 2.0mph /  3.2km/h 82% 0.00in /  0mm
23:47 69.2 °F /  20.7 °C 63.1 °F /  17.3 °C 29.88in /  1011.7hPa SE 2.0mph /  3.2km/h 3.0mph /  4.8km/h 81% 0.00in /  0mm
23:52 69.1 °F /  20.6 °C 63.0 °F /  17.2 °C 29.88in /  1011.7hPa SSW 2.0mph /  3.2km/h 2.0mph /  3.2km/h 81% 0.00in /  0mm
23:57 69.0 °F /  20.6 °C 63.3 °F /  17.4 °C 29.87in /  1011.4hPa South 2.0mph /  3.2km/h 3.0mph /  4.8km/h 82% 0.00in /  0mm
Compliments of Weather Underground